sensor_id;sensor_type;location;lat;lon;timestamp;P1;durP1;ratioP1;P2;durP2;ratioP2
15848;SDS011;8024;48.708;9.394;2022-12-29T00:01:54;9.97;;;7.00;;
15848;SDS011;8024;48.708;9.394;2022-12-29T00:04:23;7.23;;;6.17;;
15848;SDS011;8024;48.708;9.394;2022-12-29T00:06:51;6.00;;;5.43;;
15848;SDS011;8024;48.708;9.394;2022-12-29T00:09:19;4.77;;;4.03;;
15848;SDS011;8024;48.708;9.394;2022-12-29T00:11:46;4.13;;;3.50;;
15848;SDS011;8024;48.708;9.394;2022-12-29T00:14:15;3.30;;;3.00;;
15848;SDS011;8024;48.708;9.394;2022-12-29T00:16:59;4.77;;;3.63;;
15848;SDS011;8024;48.708;9.394;2022-12-29T00:19:28;3.93;;;3.00;;
15848;SDS011;8024;48.708;9.394;2022-12-29T00:22:13;5.10;;;4.23;;
15848;SDS011;8024;48.708;9.394;2022-12-29T00:24:59;7.87;;;6.27;;
15848;SDS011;8024;48.708;9.394;2022-12-29T00:27:44;6.97;;;5.80;;
15848;SDS011;8024;48.708;9.394;2022-12-29T00:30:28;7.43;;;5.73;;
15848;SDS011;8024;48.708;9.394;2022-12-29T00:33:13;6.53;;;5.03;;
15848;SDS011;8024;48.708;9.394;2022-12-29T00:36:01;8.10;;;6.83;;
15848;SDS011;8024;48.708;9.394;2022-12-29T00:38:30;8.30;;;6.43;;
15848;SDS011;8024;48.708;9.394;2022-12-29T00:41:18;7.73;;;6.83;;
15848;SDS011;8024;48.708;9.394;2022-12-29T00:44:02;8.23;;;6.33;;
15848;SDS011;8024;48.708;9.394;2022-12-29T00:46:35;10.03;;;6.93;;
15848;SDS011;8024;48.708;9.394;2022-12-29T00:49:03;5.77;;;5.17;;
15848;SDS011;8024;48.708;9.394;2022-12-29T00:51:50;3.30;;;2.80;;
15848;SDS011;8024;48.708;9.394;2022-12-29T00:54:18;3.57;;;2.93;;
15848;SDS011;8024;48.708;9.394;2022-12-29T00:56:46;2.80;;;2.60;;
15848;SDS011;8024;48.708;9.394;2022-12-29T00:59:14;2.70;;;2.50;;
15848;SDS011;8024;48.708;9.394;2022-12-29T01:01:41;5.03;;;3.10;;
15848;SDS011;8024;48.708;9.394;2022-12-29T01:04:08;3.67;;;3.37;;
15848;SDS011;8024;48.708;9.394;2022-12-29T01:06:37;3.77;;;2.93;;
15848;SDS011;8024;48.708;9.394;2022-12-29T01:09:06;3.13;;;2.70;;
15848;SDS011;8024;48.708;9.394;2022-12-29T01:11:52;2.87;;;2.37;;
15848;SDS011;8024;48.708;9.394;2022-12-29T01:14:20;2.67;;;2.47;;
15848;SDS011;8024;48.708;9.394;2022-12-29T01:16:48;2.13;;;1.93;;
15848;SDS011;8024;48.708;9.394;2022-12-29T01:19:15;3.37;;;3.07;;
15848;SDS011;8024;48.708;9.394;2022-12-29T01:21:44;2.67;;;2.00;;
15848;SDS011;8024;48.708;9.394;2022-12-29T01:24:12;3.47;;;1.97;;
15848;SDS011;8024;48.708;9.394;2022-12-29T01:26:40;3.17;;;2.43;;
15848;SDS011;8024;48.708;9.394;2022-12-29T01:29:07;5.10;;;2.50;;
15848;SDS011;8024;48.708;9.394;2022-12-29T01:31:34;4.40;;;2.73;;
15848;SDS011;8024;48.708;9.394;2022-12-29T01:34:02;3.13;;;2.83;;
15848;SDS011;8024;48.708;9.394;2022-12-29T01:36:29;2.53;;;2.30;;
15848;SDS011;8024;48.708;9.394;2022-12-29T01:38:56;4.13;;;2.30;;
15848;SDS011;8024;48.708;9.394;2022-12-29T01:41:25;2.93;;;2.63;;
15848;SDS011;8024;48.708;9.394;2022-12-29T01:43:53;3.03;;;2.83;;
15848;SDS011;8024;48.708;9.394;2022-12-29T01:46:25;3.27;;;2.97;;
15848;SDS011;8024;48.708;9.394;2022-12-29T01:48:55;2.70;;;2.50;;
15848;SDS011;8024;48.708;9.394;2022-12-29T01:51:27;3.37;;;3.17;;
15848;SDS011;8024;48.708;9.394;2022-12-29T01:53:57;3.30;;;3.00;;
15848;SDS011;8024;48.708;9.394;2022-12-29T01:56:28;3.80;;;2.50;;
15848;SDS011;8024;48.708;9.394;2022-12-29T01:58:56;4.70;;;2.10;;
15848;SDS011;8024;48.708;9.394;2022-12-29T02:01:28;2.63;;;1.93;;
15848;SDS011;8024;48.708;9.394;2022-12-29T02:03:55;3.70;;;2.07;;
15848;SDS011;8024;48.708;9.394;2022-12-29T02:06:23;2.90;;;1.93;;
15848;SDS011;8024;48.708;9.394;2022-12-29T02:08:55;2.47;;;2.27;;
15848;SDS011;8024;48.708;9.394;2022-12-29T02:11:23;2.80;;;1.60;;
15848;SDS011;8024;48.708;9.394;2022-12-29T02:13:53;4.33;;;3.10;;
15848;SDS011;8024;48.708;9.394;2022-12-29T02:16:26;2.87;;;2.57;;
15848;SDS011;8024;48.708;9.394;2022-12-29T02:19:07;2.07;;;1.87;;
15848;SDS011;8024;48.708;9.394;2022-12-29T02:22:03;1.80;;;1.70;;
15848;SDS011;8024;48.708;9.394;2022-12-29T02:27:50;2.37;;;2.13;;
15848;SDS011;8024;48.708;9.394;2022-12-29T02:33:34;2.33;;;1.70;;
15848;SDS011;8024;48.708;9.394;2022-12-29T02:36:11;3.23;;;2.10;;
15848;SDS011;8024;48.708;9.394;2022-12-29T02:38:47;2.50;;;2.17;;
15848;SDS011;8024;48.708;9.394;2022-12-29T02:41:20;1.53;;;1.40;;
15848;SDS011;8024;48.708;9.394;2022-12-29T02:43:52;2.23;;;1.57;;
15848;SDS011;8024;48.708;9.394;2022-12-29T02:46:27;2.60;;;1.93;;
15848;SDS011;8024;48.708;9.394;2022-12-29T02:49:01;1.90;;;1.70;;
15848;SDS011;8024;48.708;9.394;2022-12-29T02:51:35;2.30;;;1.93;;
15848;SDS011;8024;48.708;9.394;2022-12-29T02:54:09;5.00;;;3.20;;
15848;SDS011;8024;48.708;9.394;2022-12-29T02:56:53;3.60;;;2.90;;
15848;SDS011;8024;48.708;9.394;2022-12-29T02:59:21;3.63;;;2.77;;
15848;SDS011;8024;48.708;9.394;2022-12-29T03:01:59;3.07;;;2.80;;
15848;SDS011;8024;48.708;9.394;2022-12-29T03:04:49;3.20;;;2.97;;
15848;SDS011;8024;48.708;9.394;2022-12-29T03:07:29;4.17;;;3.40;;
15848;SDS011;8024;48.708;9.394;2022-12-29T03:10:07;4.13;;;3.73;;
15848;SDS011;8024;48.708;9.394;2022-12-29T03:12:45;3.93;;;3.53;;
15848;SDS011;8024;48.708;9.394;2022-12-29T03:15:36;5.20;;;3.93;;
15848;SDS011;8024;48.708;9.394;2022-12-29T03:18:30;1.70;;;1.60;;
15848;SDS011;8024;48.708;9.394;2022-12-29T03:21:09;1.40;;;1.30;;
15848;SDS011;8024;48.708;9.394;2022-12-29T03:23:38;0.93;;;0.80;;
15848;SDS011;8024;48.708;9.394;2022-12-29T03:26:08;3.73;;;0.80;;
15848;SDS011;8024;48.708;9.394;2022-12-29T03:28:38;1.80;;;0.60;;
15848;SDS011;8024;48.708;9.394;2022-12-29T03:31:08;1.00;;;0.50;;
15848;SDS011;8024;48.708;9.394;2022-12-29T03:33:38;0.50;;;0.50;;
15848;SDS011;8024;48.708;9.394;2022-12-29T03:36:09;3.50;;;0.60;;
15848;SDS011;8024;48.708;9.394;2022-12-29T03:38:43;0.90;;;0.53;;
15848;SDS011;8024;48.708;9.394;2022-12-29T03:41:14;0.80;;;0.50;;
15848;SDS011;8024;48.708;9.394;2022-12-29T03:43:45;0.70;;;0.70;;
15848;SDS011;8024;48.708;9.394;2022-12-29T03:46:13;2.37;;;0.40;;
15848;SDS011;8024;48.708;9.394;2022-12-29T03:48:41;3.27;;;0.70;;
15848;SDS011;8024;48.708;9.394;2022-12-29T03:51:08;2.37;;;0.50;;
15848;SDS011;8024;48.708;9.394;2022-12-29T03:53:36;1.53;;;0.40;;
15848;SDS011;8024;48.708;9.394;2022-12-29T03:56:03;0.50;;;0.50;;
15848;SDS011;8024;48.708;9.394;2022-12-29T03:58:30;1.60;;;0.30;;
15848;SDS011;8024;48.708;9.394;2022-12-29T04:00:57;0.87;;;0.30;;
15848;SDS011;8024;48.708;9.394;2022-12-29T04:03:25;2.13;;;0.40;;
15848;SDS011;8024;48.708;9.394;2022-12-29T04:05:53;1.80;;;0.63;;
15848;SDS011;8024;48.708;9.394;2022-12-29T04:08:20;2.77;;;0.57;;
15848;SDS011;8024;48.708;9.394;2022-12-29T04:10:47;0.50;;;0.40;;
15848;SDS011;8024;48.708;9.394;2022-12-29T04:13:15;1.07;;;0.30;;
15848;SDS011;8024;48.708;9.394;2022-12-29T04:15:42;1.43;;;0.60;;
15848;SDS011;8024;48.708;9.394;2022-12-29T04:18:10;0.70;;;0.50;;
15848;SDS011;8024;48.708;9.394;2022-12-29T04:20:37;1.30;;;0.60;;
15848;SDS011;8024;48.708;9.394;2022-12-29T04:23:23;0.53;;;0.47;;
15848;SDS011;8024;48.708;9.394;2022-12-29T04:25:51;1.63;;;0.63;;
15848;SDS011;8024;48.708;9.394;2022-12-29T04:28:18;1.23;;;0.50;;
15848;SDS011;8024;48.708;9.394;2022-12-29T04:30:45;1.23;;;0.50;;
15848;SDS011;8024;48.708;9.394;2022-12-29T04:33:13;1.53;;;0.67;;
15848;SDS011;8024;48.708;9.394;2022-12-29T04:35:41;1.73;;;0.60;;
15848;SDS011;8024;48.708;9.394;2022-12-29T04:38:08;1.23;;;0.40;;
15848;SDS011;8024;48.708;9.394;2022-12-29T04:40:39;1.40;;;0.60;;
15848;SDS011;8024;48.708;9.394;2022-12-29T04:43:06;2.20;;;0.50;;
15848;SDS011;8024;48.708;9.394;2022-12-29T04:45:34;0.50;;;0.50;;
15848;SDS011;8024;48.708;9.394;2022-12-29T04:48:02;0.57;;;0.50;;
15848;SDS011;8024;48.708;9.394;2022-12-29T04:50:30;1.20;;;0.60;;
15848;SDS011;8024;48.708;9.394;2022-12-29T04:52:57;1.00;;;0.50;;
15848;SDS011;8024;48.708;9.394;2022-12-29T04:55:24;2.33;;;0.60;;
15848;SDS011;8024;48.708;9.394;2022-12-29T04:57:52;2.37;;;0.63;;
15848;SDS011;8024;48.708;9.394;2022-12-29T05:00:20;1.20;;;0.50;;
15848;SDS011;8024;48.708;9.394;2022-12-29T05:02:47;1.87;;;0.40;;
15848;SDS011;8024;48.708;9.394;2022-12-29T05:05:14;0.50;;;0.50;;
15848;SDS011;8024;48.708;9.394;2022-12-29T05:07:42;1.23;;;0.50;;
15848;SDS011;8024;48.708;9.394;2022-12-29T05:10:09;0.50;;;0.50;;
15848;SDS011;8024;48.708;9.394;2022-12-29T05:12:37;1.43;;;0.60;;
15848;SDS011;8024;48.708;9.394;2022-12-29T05:15:07;0.60;;;0.60;;
15848;SDS011;8024;48.708;9.394;2022-12-29T05:17:35;1.17;;;0.70;;
15848;SDS011;8024;48.708;9.394;2022-12-29T05:20:02;2.30;;;0.40;;
15848;SDS011;8024;48.708;9.394;2022-12-29T05:22:30;4.13;;;0.50;;
15848;SDS011;8024;48.708;9.394;2022-12-29T05:24:57;1.97;;;0.70;;
15848;SDS011;8024;48.708;9.394;2022-12-29T05:27:25;1.03;;;0.50;;
15848;SDS011;8024;48.708;9.394;2022-12-29T05:29:52;0.63;;;0.53;;
15848;SDS011;8024;48.708;9.394;2022-12-29T05:32:20;1.83;;;1.00;;
15848;SDS011;8024;48.708;9.394;2022-12-29T05:34:47;1.40;;;0.70;;
15848;SDS011;8024;48.708;9.394;2022-12-29T05:37:15;0.77;;;0.63;;
15848;SDS011;8024;48.708;9.394;2022-12-29T05:39:42;0.63;;;0.63;;
15848;SDS011;8024;48.708;9.394;2022-12-29T05:42:09;2.27;;;0.40;;
15848;SDS011;8024;48.708;9.394;2022-12-29T05:44:37;0.50;;;0.50;;
15848;SDS011;8024;48.708;9.394;2022-12-29T05:47:04;1.00;;;0.50;;
15848;SDS011;8024;48.708;9.394;2022-12-29T05:49:32;1.03;;;0.50;;
15848;SDS011;8024;48.708;9.394;2022-12-29T05:52:00;1.43;;;0.57;;
15848;SDS011;8024;48.708;9.394;2022-12-29T05:54:27;1.57;;;0.60;;
15848;SDS011;8024;48.708;9.394;2022-12-29T05:56:54;0.60;;;0.60;;
15848;SDS011;8024;48.708;9.394;2022-12-29T05:59:21;0.70;;;0.70;;
15848;SDS011;8024;48.708;9.394;2022-12-29T06:01:48;1.73;;;0.63;;
15848;SDS011;8024;48.708;9.394;2022-12-29T06:04:15;1.80;;;0.60;;
15848;SDS011;8024;48.708;9.394;2022-12-29T06:06:44;1.80;;;0.80;;
15848;SDS011;8024;48.708;9.394;2022-12-29T06:09:11;2.40;;;0.77;;
15848;SDS011;8024;48.708;9.394;2022-12-29T06:11:39;0.67;;;0.67;;
15848;SDS011;8024;48.708;9.394;2022-12-29T06:14:06;0.80;;;0.70;;
15848;SDS011;8024;48.708;9.394;2022-12-29T06:16:33;0.93;;;0.70;;
15848;SDS011;8024;48.708;9.394;2022-12-29T06:19:01;1.37;;;0.60;;
15848;SDS011;8024;48.708;9.394;2022-12-29T06:21:28;0.90;;;0.83;;
15848;SDS011;8024;48.708;9.394;2022-12-29T06:23:56;1.90;;;0.50;;
15848;SDS011;8024;48.708;9.394;2022-12-29T06:26:23;2.40;;;0.97;;
15848;SDS011;8024;48.708;9.394;2022-12-29T06:28:50;1.63;;;0.70;;
15848;SDS011;8024;48.708;9.394;2022-12-29T06:31:18;1.57;;;0.90;;
15848;SDS011;8024;48.708;9.394;2022-12-29T06:33:45;1.13;;;1.03;;
15848;SDS011;8024;48.708;9.394;2022-12-29T06:36:12;1.37;;;0.60;;
15848;SDS011;8024;48.708;9.394;2022-12-29T06:38:39;2.57;;;0.60;;
15848;SDS011;8024;48.708;9.394;2022-12-29T06:41:07;2.37;;;1.03;;
15848;SDS011;8024;48.708;9.394;2022-12-29T06:43:35;1.67;;;0.73;;
15848;SDS011;8024;48.708;9.394;2022-12-29T06:46:03;1.10;;;1.00;;
15848;SDS011;8024;48.708;9.394;2022-12-29T06:48:30;2.67;;;1.10;;
15848;SDS011;8024;48.708;9.394;2022-12-29T06:50:57;0.80;;;0.80;;
15848;SDS011;8024;48.708;9.394;2022-12-29T06:53:24;1.23;;;1.10;;
15848;SDS011;8024;48.708;9.394;2022-12-29T06:55:52;2.27;;;0.80;;
15848;SDS011;8024;48.708;9.394;2022-12-29T06:58:20;1.67;;;0.80;;
15848;SDS011;8024;48.708;9.394;2022-12-29T07:00:48;0.97;;;0.67;;
15848;SDS011;8024;48.708;9.394;2022-12-29T07:03:15;2.43;;;0.93;;
15848;SDS011;8024;48.708;9.394;2022-12-29T07:05:42;0.67;;;0.67;;
15848;SDS011;8024;48.708;9.394;2022-12-29T07:08:09;2.00;;;0.73;;
15848;SDS011;8024;48.708;9.394;2022-12-29T07:10:36;3.47;;;0.90;;
15848;SDS011;8024;48.708;9.394;2022-12-29T07:13:03;1.00;;;0.80;;
15848;SDS011;8024;48.708;9.394;2022-12-29T07:15:34;0.67;;;0.63;;
15848;SDS011;8024;48.708;9.394;2022-12-29T07:18:02;1.60;;;0.80;;
15848;SDS011;8024;48.708;9.394;2022-12-29T07:20:29;0.70;;;0.70;;
15848;SDS011;8024;48.708;9.394;2022-12-29T07:22:56;0.80;;;0.53;;
15848;SDS011;8024;48.708;9.394;2022-12-29T07:25:24;0.70;;;0.70;;
15848;SDS011;8024;48.708;9.394;2022-12-29T07:27:51;1.83;;;1.10;;
15848;SDS011;8024;48.708;9.394;2022-12-29T07:30:18;1.67;;;0.60;;
15848;SDS011;8024;48.708;9.394;2022-12-29T07:32:46;2.17;;;1.10;;
15848;SDS011;8024;48.708;9.394;2022-12-29T07:35:13;2.37;;;1.03;;
15848;SDS011;8024;48.708;9.394;2022-12-29T07:37:41;1.20;;;0.70;;
15848;SDS011;8024;48.708;9.394;2022-12-29T07:40:08;1.80;;;0.70;;
15848;SDS011;8024;48.708;9.394;2022-12-29T07:42:36;0.90;;;0.90;;
15848;SDS011;8024;48.708;9.394;2022-12-29T07:45:04;2.40;;;2.00;;
15848;SDS011;8024;48.708;9.394;2022-12-29T07:47:32;0.90;;;0.90;;
15848;SDS011;8024;48.708;9.394;2022-12-29T07:50:00;1.93;;;1.27;;
15848;SDS011;8024;48.708;9.394;2022-12-29T07:52:27;1.87;;;1.23;;
15848;SDS011;8024;48.708;9.394;2022-12-29T07:54:54;2.03;;;1.30;;
15848;SDS011;8024;48.708;9.394;2022-12-29T07:57:22;1.67;;;0.93;;
15848;SDS011;8024;48.708;9.394;2022-12-29T07:59:49;1.67;;;1.03;;
15848;SDS011;8024;48.708;9.394;2022-12-29T08:02:16;0.90;;;0.90;;
15848;SDS011;8024;48.708;9.394;2022-12-29T08:04:43;1.80;;;0.90;;
15848;SDS011;8024;48.708;9.394;2022-12-29T08:07:12;1.13;;;0.97;;
15848;SDS011;8024;48.708;9.394;2022-12-29T08:09:39;1.07;;;0.90;;
15848;SDS011;8024;48.708;9.394;2022-12-29T08:12:07;1.20;;;0.73;;
15848;SDS011;8024;48.708;9.394;2022-12-29T08:14:35;1.10;;;1.00;;
15848;SDS011;8024;48.708;9.394;2022-12-29T08:17:03;1.33;;;1.00;;
15848;SDS011;8024;48.708;9.394;2022-12-29T08:19:30;0.87;;;0.63;;
15848;SDS011;8024;48.708;9.394;2022-12-29T08:21:57;0.60;;;0.60;;
15848;SDS011;8024;48.708;9.394;2022-12-29T08:24:25;0.97;;;0.80;;
15848;SDS011;8024;48.708;9.394;2022-12-29T08:26:52;1.13;;;1.03;;
15848;SDS011;8024;48.708;9.394;2022-12-29T08:29:20;3.03;;;0.97;;
15848;SDS011;8024;48.708;9.394;2022-12-29T08:31:47;1.60;;;0.83;;
15848;SDS011;8024;48.708;9.394;2022-12-29T08:34:14;1.73;;;0.87;;
15848;SDS011;8024;48.708;9.394;2022-12-29T08:36:41;1.80;;;0.80;;
15848;SDS011;8024;48.708;9.394;2022-12-29T08:39:09;1.20;;;0.60;;
15848;SDS011;8024;48.708;9.394;2022-12-29T08:41:37;1.30;;;0.83;;
15848;SDS011;8024;48.708;9.394;2022-12-29T08:44:04;1.47;;;0.90;;
15848;SDS011;8024;48.708;9.394;2022-12-29T08:46:32;0.97;;;0.70;;
15848;SDS011;8024;48.708;9.394;2022-12-29T08:48:59;1.00;;;0.90;;
15848;SDS011;8024;48.708;9.394;2022-12-29T08:51:26;0.77;;;0.77;;
15848;SDS011;8024;48.708;9.394;2022-12-29T08:53:53;1.10;;;0.60;;
15848;SDS011;8024;48.708;9.394;2022-12-29T08:56:20;1.23;;;0.80;;
15848;SDS011;8024;48.708;9.394;2022-12-29T08:58:50;1.03;;;0.97;;
15848;SDS011;8024;48.708;9.394;2022-12-29T09:01:17;0.90;;;0.90;;
15848;SDS011;8024;48.708;9.394;2022-12-29T09:03:45;1.50;;;0.90;;
15848;SDS011;8024;48.708;9.394;2022-12-29T09:06:12;2.70;;;0.80;;
15848;SDS011;8024;48.708;9.394;2022-12-29T09:08:40;0.63;;;0.63;;
15848;SDS011;8024;48.708;9.394;2022-12-29T09:11:07;0.93;;;0.50;;
15848;SDS011;8024;48.708;9.394;2022-12-29T09:13:36;1.83;;;0.67;;
15848;SDS011;8024;48.708;9.394;2022-12-29T09:16:04;1.40;;;0.70;;
15848;SDS011;8024;48.708;9.394;2022-12-29T09:18:32;0.70;;;0.70;;
15848;SDS011;8024;48.708;9.394;2022-12-29T09:21:00;0.80;;;0.80;;
15848;SDS011;8024;48.708;9.394;2022-12-29T09:23:29;1.33;;;0.87;;
15848;SDS011;8024;48.708;9.394;2022-12-29T09:25:57;1.37;;;0.93;;
15848;SDS011;8024;48.708;9.394;2022-12-29T09:28:24;0.80;;;0.77;;
15848;SDS011;8024;48.708;9.394;2022-12-29T09:30:53;0.80;;;0.80;;
15848;SDS011;8024;48.708;9.394;2022-12-29T09:33:23;0.80;;;0.70;;
15848;SDS011;8024;48.708;9.394;2022-12-29T09:35:51;1.47;;;0.87;;
15848;SDS011;8024;48.708;9.394;2022-12-29T09:38:20;1.10;;;0.63;;
15848;SDS011;8024;48.708;9.394;2022-12-29T09:40:49;2.10;;;1.20;;
15848;SDS011;8024;48.708;9.394;2022-12-29T09:43:24;1.23;;;0.87;;
15848;SDS011;8024;48.708;9.394;2022-12-29T09:46:11;1.50;;;1.20;;
15848;SDS011;8024;48.708;9.394;2022-12-29T09:48:47;0.73;;;0.70;;
15848;SDS011;8024;48.708;9.394;2022-12-29T09:51:18;0.80;;;0.80;;
15848;SDS011;8024;48.708;9.394;2022-12-29T09:53:50;1.53;;;0.93;;
15848;SDS011;8024;48.708;9.394;2022-12-29T09:56:22;1.30;;;1.20;;
15848;SDS011;8024;48.708;9.394;2022-12-29T09:58:52;1.80;;;1.13;;
15848;SDS011;8024;48.708;9.394;2022-12-29T10:01:26;1.87;;;1.17;;
15848;SDS011;8024;48.708;9.394;2022-12-29T10:03:57;1.10;;;0.80;;
15848;SDS011;8024;48.708;9.394;2022-12-29T10:06:31;1.90;;;0.80;;
15848;SDS011;8024;48.708;9.394;2022-12-29T10:09:02;1.90;;;0.67;;
15848;SDS011;8024;48.708;9.394;2022-12-29T10:11:39;1.77;;;0.70;;
15848;SDS011;8024;48.708;9.394;2022-12-29T10:14:21;0.63;;;0.50;;
15848;SDS011;8024;48.708;9.394;2022-12-29T10:17:04;2.00;;;0.60;;
15848;SDS011;8024;48.708;9.394;2022-12-29T10:19:47;2.37;;;0.73;;
15848;SDS011;8024;48.708;9.394;2022-12-29T10:22:32;2.00;;;0.70;;
15848;SDS011;8024;48.708;9.394;2022-12-29T10:25:08;1.73;;;0.57;;
15848;SDS011;8024;48.708;9.394;2022-12-29T10:27:42;5.93;;;2.47;;
15848;SDS011;8024;48.708;9.394;2022-12-29T10:30:11;1.83;;;1.07;;
15848;SDS011;8024;48.708;9.394;2022-12-29T10:32:40;1.97;;;0.83;;
15848;SDS011;8024;48.708;9.394;2022-12-29T10:35:16;0.50;;;0.50;;
15848;SDS011;8024;48.708;9.394;2022-12-29T10:37:46;1.70;;;1.30;;
15848;SDS011;8024;48.708;9.394;2022-12-29T10:40:19;1.87;;;0.80;;
15848;SDS011;8024;48.708;9.394;2022-12-29T10:42:52;2.77;;;0.83;;
15848;SDS011;8024;48.708;9.394;2022-12-29T10:45:21;3.30;;;2.17;;
15848;SDS011;8024;48.708;9.394;2022-12-29T10:47:52;3.60;;;1.50;;
15848;SDS011;8024;48.708;9.394;2022-12-29T10:50:24;2.73;;;1.20;;
15848;SDS011;8024;48.708;9.394;2022-12-29T10:52:52;1.90;;;1.10;;
15848;SDS011;8024;48.708;9.394;2022-12-29T10:55:21;2.20;;;0.83;;
15848;SDS011;8024;48.708;9.394;2022-12-29T10:57:53;1.80;;;1.07;;
15848;SDS011;8024;48.708;9.394;2022-12-29T11:00:22;1.90;;;0.60;;
15848;SDS011;8024;48.708;9.394;2022-12-29T11:02:53;2.00;;;0.80;;
15848;SDS011;8024;48.708;9.394;2022-12-29T11:05:40;1.60;;;0.80;;
15848;SDS011;8024;48.708;9.394;2022-12-29T11:08:12;2.33;;;0.67;;
15848;SDS011;8024;48.708;9.394;2022-12-29T11:10:43;1.10;;;0.87;;
15848;SDS011;8024;48.708;9.394;2022-12-29T11:13:12;1.37;;;0.80;;
15848;SDS011;8024;48.708;9.394;2022-12-29T11:15:42;2.30;;;0.90;;
15848;SDS011;8024;48.708;9.394;2022-12-29T11:18:17;1.57;;;1.00;;
15848;SDS011;8024;48.708;9.394;2022-12-29T11:20:48;2.90;;;0.60;;
15848;SDS011;8024;48.708;9.394;2022-12-29T11:26:06;0.60;;;0.60;;
15848;SDS011;8024;48.708;9.394;2022-12-29T11:28:40;1.40;;;0.60;;
15848;SDS011;8024;48.708;9.394;2022-12-29T11:31:09;1.87;;;0.60;;
15848;SDS011;8024;48.708;9.394;2022-12-29T11:33:41;2.73;;;0.60;;
15848;SDS011;8024;48.708;9.394;2022-12-29T11:36:10;1.93;;;0.53;;
15848;SDS011;8024;48.708;9.394;2022-12-29T11:38:40;1.13;;;0.60;;
15848;SDS011;8024;48.708;9.394;2022-12-29T11:41:12;1.40;;;0.60;;
15848;SDS011;8024;48.708;9.394;2022-12-29T11:43:45;1.80;;;0.50;;
15848;SDS011;8024;48.708;9.394;2022-12-29T11:46:13;1.37;;;0.60;;
15848;SDS011;8024;48.708;9.394;2022-12-29T11:48:43;0.70;;;0.70;;
15848;SDS011;8024;48.708;9.394;2022-12-29T11:51:13;0.77;;;0.50;;
15848;SDS011;8024;48.708;9.394;2022-12-29T11:53:49;1.53;;;0.70;;
15848;SDS011;8024;48.708;9.394;2022-12-29T11:56:19;1.27;;;0.60;;
15848;SDS011;8024;48.708;9.394;2022-12-29T11:58:48;1.10;;;0.70;;
15848;SDS011;8024;48.708;9.394;2022-12-29T12:01:19;1.67;;;0.90;;
15848;SDS011;8024;48.708;9.394;2022-12-29T12:03:51;4.73;;;0.97;;
15848;SDS011;8024;48.708;9.394;2022-12-29T12:06:26;1.60;;;0.90;;
15848;SDS011;8024;48.708;9.394;2022-12-29T12:08:57;1.17;;;0.57;;
15848;SDS011;8024;48.708;9.394;2022-12-29T12:11:29;2.43;;;0.80;;
15848;SDS011;8024;48.708;9.394;2022-12-29T12:14:02;0.60;;;0.60;;
15848;SDS011;8024;48.708;9.394;2022-12-29T12:16:39;2.20;;;0.60;;
15848;SDS011;8024;48.708;9.394;2022-12-29T12:19:12;1.23;;;0.50;;
15848;SDS011;8024;48.708;9.394;2022-12-29T12:21:47;1.00;;;0.60;;
15848;SDS011;8024;48.708;9.394;2022-12-29T12:24:33;1.50;;;0.70;;
15848;SDS011;8024;48.708;9.394;2022-12-29T12:27:08;1.13;;;1.03;;
15848;SDS011;8024;48.708;9.394;2022-12-29T12:29:42;3.03;;;1.43;;
15848;SDS011;8024;48.708;9.394;2022-12-29T12:32:14;1.40;;;1.03;;
15848;SDS011;8024;48.708;9.394;2022-12-29T12:34:45;1.83;;;1.00;;
15848;SDS011;8024;48.708;9.394;2022-12-29T12:37:31;1.30;;;1.20;;
15848;SDS011;8024;48.708;9.394;2022-12-29T12:43:28;1.90;;;0.67;;
15848;SDS011;8024;48.708;9.394;2022-12-29T12:46:06;0.70;;;0.70;;
15848;SDS011;8024;48.708;9.394;2022-12-29T12:48:49;0.73;;;0.60;;
15848;SDS011;8024;48.708;9.394;2022-12-29T12:51:30;1.50;;;0.77;;
15848;SDS011;8024;48.708;9.394;2022-12-29T12:54:09;0.77;;;0.77;;
15848;SDS011;8024;48.708;9.394;2022-12-29T12:57:02;2.53;;;1.10;;
15848;SDS011;8024;48.708;9.394;2022-12-29T12:59:41;5.33;;;1.00;;
15848;SDS011;8024;48.708;9.394;2022-12-29T13:02:20;2.43;;;0.93;;
15848;SDS011;8024;48.708;9.394;2022-12-29T13:05:02;1.23;;;0.80;;
15848;SDS011;8024;48.708;9.394;2022-12-29T13:07:48;1.27;;;0.87;;
15848;SDS011;8024;48.708;9.394;2022-12-29T13:10:29;0.63;;;0.63;;
15848;SDS011;8024;48.708;9.394;2022-12-29T13:13:12;2.40;;;0.93;;
15848;SDS011;8024;48.708;9.394;2022-12-29T13:15:57;1.63;;;1.03;;
15848;SDS011;8024;48.708;9.394;2022-12-29T13:18:32;2.53;;;1.10;;
15848;SDS011;8024;48.708;9.394;2022-12-29T13:21:04;1.70;;;0.97;;
15848;SDS011;8024;48.708;9.394;2022-12-29T13:23:39;2.43;;;1.23;;
15848;SDS011;8024;48.708;9.394;2022-12-29T13:26:14;1.67;;;1.00;;
15848;SDS011;8024;48.708;9.394;2022-12-29T13:28:48;1.77;;;0.80;;
15848;SDS011;8024;48.708;9.394;2022-12-29T13:31:24;1.13;;;0.97;;
15848;SDS011;8024;48.708;9.394;2022-12-29T13:34:00;1.37;;;0.70;;
15848;SDS011;8024;48.708;9.394;2022-12-29T13:36:33;1.77;;;0.60;;
15848;SDS011;8024;48.708;9.394;2022-12-29T13:39:05;0.80;;;0.80;;
15848;SDS011;8024;48.708;9.394;2022-12-29T13:41:39;2.20;;;0.80;;
15848;SDS011;8024;48.708;9.394;2022-12-29T13:44:09;0.80;;;0.80;;
15848;SDS011;8024;48.708;9.394;2022-12-29T13:46:42;3.57;;;1.17;;
15848;SDS011;8024;48.708;9.394;2022-12-29T13:49:12;1.07;;;0.97;;
15848;SDS011;8024;48.708;9.394;2022-12-29T13:51:42;0.90;;;0.80;;
15848;SDS011;8024;48.708;9.394;2022-12-29T13:54:17;3.23;;;1.00;;
15848;SDS011;8024;48.708;9.394;2022-12-29T13:56:54;2.43;;;1.40;;
15848;SDS011;8024;48.708;9.394;2022-12-29T13:59:31;1.27;;;1.00;;
15848;SDS011;8024;48.708;9.394;2022-12-29T14:02:08;1.87;;;0.93;;
15848;SDS011;8024;48.708;9.394;2022-12-29T14:04:55;1.27;;;0.80;;
15848;SDS011;8024;48.708;9.394;2022-12-29T14:07:24;1.57;;;0.90;;
15848;SDS011;8024;48.708;9.394;2022-12-29T14:09:52;2.00;;;0.80;;
15848;SDS011;8024;48.708;9.394;2022-12-29T14:12:28;0.80;;;0.80;;
15848;SDS011;8024;48.708;9.394;2022-12-29T14:15:05;3.53;;;1.10;;
15848;SDS011;8024;48.708;9.394;2022-12-29T14:17:40;1.10;;;0.83;;
15848;SDS011;8024;48.708;9.394;2022-12-29T14:20:16;1.20;;;0.80;;
15848;SDS011;8024;48.708;9.394;2022-12-29T14:22:55;1.10;;;0.60;;
15848;SDS011;8024;48.708;9.394;2022-12-29T14:28:23;2.20;;;1.20;;
15848;SDS011;8024;48.708;9.394;2022-12-29T14:30:53;1.37;;;0.80;;
15848;SDS011;8024;48.708;9.394;2022-12-29T14:33:21;2.23;;;1.57;;
15848;SDS011;8024;48.708;9.394;2022-12-29T14:35:51;2.90;;;1.87;;
15848;SDS011;8024;48.708;9.394;2022-12-29T14:38:21;1.57;;;1.33;;
15848;SDS011;8024;48.708;9.394;2022-12-29T14:40:53;1.83;;;1.73;;
15848;SDS011;8024;48.708;9.394;2022-12-29T14:43:52;2.80;;;1.60;;
15848;SDS011;8024;48.708;9.394;2022-12-29T14:46:24;2.50;;;1.60;;
15848;SDS011;8024;48.708;9.394;2022-12-29T14:49:08;1.80;;;1.20;;
15848;SDS011;8024;48.708;9.394;2022-12-29T14:51:43;1.60;;;1.20;;
15848;SDS011;8024;48.708;9.394;2022-12-29T14:57:06;3.57;;;1.87;;
15848;SDS011;8024;48.708;9.394;2022-12-29T14:59:41;1.60;;;1.37;;
15848;SDS011;8024;48.708;9.394;2022-12-29T15:02:12;1.73;;;0.83;;
15848;SDS011;8024;48.708;9.394;2022-12-29T15:04:43;2.57;;;1.47;;
15848;SDS011;8024;48.708;9.394;2022-12-29T15:07:10;1.37;;;1.13;;
15848;SDS011;8024;48.708;9.394;2022-12-29T15:09:40;1.00;;;0.83;;
15848;SDS011;8024;48.708;9.394;2022-12-29T15:12:15;1.07;;;1.07;;
15848;SDS011;8024;48.708;9.394;2022-12-29T15:14:50;1.00;;;0.80;;
15848;SDS011;8024;48.708;9.394;2022-12-29T15:17:23;1.93;;;1.00;;
15848;SDS011;8024;48.708;9.394;2022-12-29T15:19:52;1.23;;;1.10;;
15848;SDS011;8024;48.708;9.394;2022-12-29T15:22:19;3.30;;;0.73;;
15848;SDS011;8024;48.708;9.394;2022-12-29T15:24:47;0.70;;;0.70;;
15848;SDS011;8024;48.708;9.394;2022-12-29T15:27:19;2.10;;;0.60;;
15848;SDS011;8024;48.708;9.394;2022-12-29T15:29:47;1.53;;;0.97;;
15848;SDS011;8024;48.708;9.394;2022-12-29T15:32:21;1.40;;;0.83;;
15848;SDS011;8024;48.708;9.394;2022-12-29T15:34:51;0.93;;;0.90;;
15848;SDS011;8024;48.708;9.394;2022-12-29T15:37:20;1.80;;;1.07;;
15848;SDS011;8024;48.708;9.394;2022-12-29T15:39:49;2.00;;;0.93;;
15848;SDS011;8024;48.708;9.394;2022-12-29T15:42:30;3.00;;;0.90;;
15848;SDS011;8024;48.708;9.394;2022-12-29T15:45:14;2.97;;;1.10;;